TimeCDT,TemperatureF,Dew PointF,Humidity,Sea Level PressureIn,VisibilityMPH,Wind Direction,Wind SpeedMPH,Gust SpeedMPH,PrecipitationIn,Events,Conditions,WindDirDegrees,DateUTC
12:15 AM,41.0,37.4,87,29.91,10.0,North,4.6,-,N/A,,Clear,360,2012-10-03 05:15:00
12:35 AM,41.0,37.4,87,29.91,10.0,NNE,3.5,-,N/A,,Clear,20,2012-10-03 05:35:00
12:55 AM,42.8,39.2,87,29.91,10.0,Calm,Calm,-,N/A,,Partly Cloudy,0,2012-10-03 05:55:00
1:15 AM,41.0,37.4,87,29.91,10.0,North,3.5,-,N/A,,Scattered Clouds,360,2012-10-03 06:15:00
1:35 AM,39.2,37.4,93,29.91,10.0,North,4.6,-,N/A,,Scattered Clouds,360,2012-10-03 06:35:00
1:55 AM,39.2,37.4,93,29.91,10.0,North,4.6,-,N/A,,Partly Cloudy,360,2012-10-03 06:55:00
2:15 AM,39.2,37.4,93,29.91,10.0,NNE,3.5,-,N/A,,Clear,20,2012-10-03 07:15:00
2:35 AM,39.2,37.4,93,29.91,10.0,North,4.6,-,N/A,,Clear,360,2012-10-03 07:35:00
2:55 AM,39.2,37.4,93,29.91,10.0,Calm,Calm,-,N/A,,Scattered Clouds,0,2012-10-03 07:55:00
3:15 AM,39.2,37.4,93,29.91,10.0,Calm,Calm,-,N/A,,Partly Cloudy,0,2012-10-03 08:15:00
3:35 AM,39.2,37.4,93,29.91,10.0,Calm,Calm,-,N/A,,Clear,0,2012-10-03 08:35:00
3:55 AM,37.4,35.6,93,29.91,10.0,Calm,Calm,-,N/A,,Clear,0,2012-10-03 08:55:00
4:15 AM,37.4,35.6,93,29.91,10.0,North,3.5,-,N/A,,Clear,10,2012-10-03 09:15:00
4:35 AM,37.4,35.6,93,29.91,10.0,North,4.6,-,N/A,,Clear,360,2012-10-03 09:35:00
4:55 AM,35.6,35.6,100,29.91,10.0,NNE,3.5,-,N/A,,Clear,20,2012-10-03 09:55:00
5:15 AM,35.6,33.8,93,29.91,10.0,North,4.6,-,N/A,,Clear,360,2012-10-03 10:15:00
5:35 AM,35.6,33.8,93,29.92,10.0,North,4.6,-,N/A,,Clear,360,2012-10-03 10:35:00
5:55 AM,35.6,33.8,93,29.92,10.0,North,5.8,-,N/A,,Clear,10,2012-10-03 10:55:00
6:15 AM,35.6,33.8,93,29.92,10.0,North,3.5,-,N/A,,Clear,10,2012-10-03 11:15:00
6:35 AM,35.6,33.8,93,29.93,10.0,North,4.6,-,N/A,,Clear,360,2012-10-03 11:35:00
6:55 AM,35.6,33.8,93,29.93,-9999.0,NNE,4.6,-,N/A,,Unknown,20,2012-10-03 11:55:00
7:15 AM,35.6,33.8,93,29.93,9.0,Calm,Calm,-,N/A,,Clear,0,2012-10-03 12:15:00
7:35 AM,35.6,33.8,93,29.93,9.0,Calm,Calm,-,N/A,,Clear,0,2012-10-03 12:35:00
7:55 AM,35.6,33.8,93,29.93,9.0,Calm,Calm,-,N/A,,Clear,0,2012-10-03 12:55:00
8:15 AM,39.2,37.4,93,29.93,9.0,Calm,Calm,-,N/A,,Clear,0,2012-10-03 13:15:00
8:35 AM,41.0,39.2,93,29.94,8.0,Calm,Calm,-,N/A,,Clear,0,2012-10-03 13:35:00
8:55 AM,44.6,41.0,87,29.94,9.0,Calm,Calm,-,N/A,,Clear,0,2012-10-03 13:55:00
9:15 AM,48.2,41.0,76,29.93,9.0,Calm,Calm,-,N/A,,Clear,0,2012-10-03 14:15:00
9:35 AM,51.8,42.8,71,29.93,8.0,Calm,Calm,-,N/A,,Clear,0,2012-10-03 14:35:00
9:55 AM,57.2,44.6,63,29.93,7.0,Calm,Calm,-,N/A,,Clear,0,2012-10-03 14:55:00
10:15 AM,62.6,39.2,42,29.93,9.0,South,8.1,-,N/A,,Clear,190,2012-10-03 15:15:00
10:35 AM,66.2,39.2,37,29.93,9.0,South,9.2,-,N/A,,Clear,170,2012-10-03 15:35:00
10:55 AM,68.0,37.4,33,29.92,9.0,South,11.5,-,N/A,,Clear,190,2012-10-03 15:55:00
11:15 AM,69.8,39.2,33,29.92,10.0,South,9.2,15.0,N/A,,Clear,180,2012-10-03 16:15:00
11:35 AM,71.6,37.4,29,29.91,8.0,South,15.0,-,N/A,,Clear,190,2012-10-03 16:35:00
11:55 AM,73.4,37.4,27,29.90,3.0,SSW,16.1,-,N/A,,Haze,200,2012-10-03 16:55:00
12:15 PM,73.4,37.4,27,29.89,9.0,South,15.0,21.9,N/A,,Clear,180,2012-10-03 17:15:00
12:55 PM,75.2,37.4,25,29.88,5.0,SSW,13.8,25.3,N/A,,Haze,200,2012-10-03 17:55:00
1:15 PM,75.2,37.4,25,29.87,8.0,SSW,18.4,-,N/A,,Clear,200,2012-10-03 18:15:00
1:35 PM,77.0,35.6,22,29.86,9.0,South,12.7,20.7,N/A,,Clear,170,2012-10-03 18:35:00
2:15 PM,77.0,35.6,22,29.84,10.0,South,12.7,21.9,N/A,,Unknown,190,2012-10-03 19:15:00
2:35 PM,77.0,33.8,21,29.84,6.0,South,17.3,25.3,N/A,,Haze,190,2012-10-03 19:35:00
2:55 PM,77.0,33.8,21,29.83,9.0,South,18.4,25.3,N/A,,Clear,190,2012-10-03 19:55:00
3:15 PM,77.0,33.8,21,29.83,7.0,SSW,19.6,25.3,N/A,,Clear,200,2012-10-03 20:15:00
3:35 PM,78.8,35.6,21,29.83,7.0,South,18.4,25.3,N/A,,Clear,180,2012-10-03 20:35:00
3:55 PM,77.0,35.6,22,29.83,9.0,South,18.4,25.3,N/A,,Clear,180,2012-10-03 20:55:00
4:15 PM,78.8,35.6,21,29.82,8.0,South,15.0,23.0,N/A,,Clear,180,2012-10-03 21:15:00
4:35 PM,77.0,33.8,21,29.82,8.0,South,21.9,28.8,N/A,,Clear,170,2012-10-03 21:35:00
4:55 PM,78.8,33.8,20,29.82,9.0,South,15.0,23.0,N/A,,Clear,190,2012-10-03 21:55:00
5:15 PM,78.8,33.8,20,29.82,8.0,SSW,18.4,27.6,N/A,,Clear,200,2012-10-03 22:15:00
5:35 PM,77.0,33.8,21,29.82,9.0,South,15.0,26.5,N/A,,Clear,180,2012-10-03 22:35:00
5:55 PM,77.0,33.8,21,29.82,0.2,South,13.8,21.9,N/A,,Haze,180,2012-10-03 22:55:00
6:15 PM,75.2,33.8,22,29.82,-9999.0,South,11.5,-,N/A,,Unknown,170,2012-10-03 23:15:00
6:35 PM,73.4,33.8,23,29.83,0.2,South,9.2,16.1,N/A,,Haze,180,2012-10-03 23:35:00
6:55 PM,71.6,33.8,25,29.84,0.2,South,10.4,-,N/A,,Haze,170,2012-10-03 23:55:00
7:15 PM,69.8,35.6,28,29.85,0.2,SSE,8.1,-,N/A,,Haze,160,2012-10-04 00:15:00
7:35 PM,66.2,35.6,32,29.86,0.2,SSW,5.8,-,N/A,,Haze,200,2012-10-04 00:35:00
7:55 PM,64.4,35.6,34,29.86,0.2,South,5.8,-,N/A,,Haze,190,2012-10-04 00:55:00
8:15 PM,64.4,37.4,37,29.87,0.2,South,5.8,-,N/A,,Haze,190,2012-10-04 01:15:00
8:35 PM,60.8,37.4,42,29.87,0.2,South,5.8,-,N/A,,Unknown,190,2012-10-04 01:35:00
8:55 PM,62.6,37.4,39,29.87,0.2,South,9.2,-,N/A,,Haze,170,2012-10-04 01:55:00
9:35 PM,64.4,37.4,37,29.88,0.2,South,8.1,-,N/A,,Haze,190,2012-10-04 02:35:00
9:55 PM,64.4,39.2,40,29.88,0.2,SSW,10.4,-,N/A,,Haze,200,2012-10-04 02:55:00
10:15 PM,64.4,39.2,40,29.89,0.2,South,9.2,-,N/A,,Haze,180,2012-10-04 03:15:00
10:35 PM,62.6,39.2,42,29.90,0.2,South,8.1,-,N/A,,Haze,190,2012-10-04 03:35:00
10:55 PM,60.8,39.2,45,29.90,0.2,SSW,8.1,-,N/A,,Haze,200,2012-10-04 03:55:00
11:15 PM,60.8,41.0,48,29.91,0.2,SSW,10.4,-,N/A,,Haze,200,2012-10-04 04:15:00
11:35 PM,60.8,41.0,48,29.91,0.2,South,8.1,-,N/A,,Haze,190,2012-10-04 04:35:00
11:55 PM,62.6,41.0,45,29.91,0.2,South,9.2,-,N/A,,Haze,190,2012-10-04 04:55:00